Terminal Aerodrome Forecast
Issued by NWS Tampa Bay Area, FL

Home | Current Version | Previous Version | Text Only | Print | Product List | Glossary On
Versions: 1 2 3 4 5 6 7 8 9 10 11 12 13 14
000
FTUS42 KTBW 282339
TAFFMY
TAF
KFMY 282339Z 2900/2924 09012KT P6SM FEW060
     FM290500 06006KT P6SM FEW250
     FM291900 07009KT P6SM VCTS FEW025CB SCT050 BKN250=

USA.gov is the U.S. government's official web portal to all federal, state and local government web resources and services.